Time;durP1;ratioP1;P1;durP2;ratioP2;P2;SDS_P1;SDS_P2;PMS_P1;PMS_P2;Temp;Humidity;BMP_temperature;BMP_pressure;BME280_temperature;BME280_humidity;BME280_pressure;Samples;Min_cycle;Max_cycle;Signal;HPM_P1;HPM_P2
2022/03/09 00:01:29;;;;;;;24.52;11.63;;;;;;;2.24;47.40;100514.22;4349962;32;33627;-86
2022/03/09 00:03:59;;;;;;;23.67;10.80;;;;;;;2.10;47.68;100508.13;4372242;32;33444;-86
2022/03/09 00:06:27;;;;;;;24.70;10.55;;;;;;;2.15;47.49;100501.19;4367348;32;32711;-86
2022/03/09 00:08:55;;;;;;;30.15;10.43;;;;;;;2.09;48.16;100506.38;4368405;32;33570;-86
2022/03/09 00:11:26;;;;;;;29.13;11.93;;;;;;;2.01;48.22;100501.16;4352807;32;32976;-87
2022/03/09 00:13:54;;;;;;;25.58;11.23;;;;;;;1.92;48.55;100505.47;4347894;32;32939;-86
2022/03/09 00:16:21;;;;;;;25.25;10.57;;;;;;;1.89;48.82;100513.25;4372250;32;33539;-86
2022/03/09 00:18:49;;;;;;;23.45;9.85;;;;;;;1.83;48.98;100519.31;4372462;32;34357;-86
2022/03/09 00:21:17;;;;;;;23.85;9.68;;;;;;;1.85;48.92;100516.72;4365162;32;34703;-86
2022/03/09 00:23:47;;;;;;;22.30;11.40;;;;;;;1.94;48.43;100525.41;4353206;32;33256;-87
2022/03/09 00:26:15;;;;;;;23.87;11.07;;;;;;;1.77;48.94;100520.19;4352933;32;33797;-86
2022/03/09 00:28:42;;;;;;;23.42;10.88;;;;;;;1.77;48.67;100525.37;4365687;32;32928;-87
2022/03/09 00:31:11;;;;;;;28.33;10.38;;;;;;;1.77;48.61;100519.31;4352358;32;33619;-86
2022/03/09 00:33:40;;;;;;;22.85;10.25;;;;;;;2.00;47.97;100522.00;4366687;32;33879;-86
2022/03/09 00:36:07;;;;;;;21.02;10.27;;;;;;;1.73;48.67;100521.03;4352652;32;32006;-86
2022/03/09 00:38:35;;;;;;;22.83;9.85;;;;;;;1.81;48.45;100522.81;4365606;32;33584;-85
2022/03/09 00:41:04;;;;;;;26.35;10.23;;;;;;;1.97;48.39;100521.97;4364798;32;33705;-86
2022/03/09 00:43:34;;;;;;;21.10;10.60;;;;;;;1.86;48.59;100519.34;4353354;32;34179;-86
2022/03/09 00:46:01;;;;;;;19.83;9.35;;;;;;;1.83;49.02;100518.47;4360193;32;33992;-85
2022/03/09 00:48:30;;;;;;;22.40;9.75;;;;;;;1.83;48.91;100511.50;4353830;32;33469;-86
2022/03/09 00:50:57;;;;;;;19.27;9.57;;;;;;;1.65;49.49;100517.50;4372728;32;33109;-85
2022/03/09 00:53:25;;;;;;;22.73;8.50;;;;;;;1.81;49.22;100509.78;4352196;32;33572;-85
2022/03/09 00:55:53;;;;;;;18.92;8.88;;;;;;;1.90;48.99;100505.47;4372989;32;33000;-87
2022/03/09 00:58:20;;;;;;;16.85;9.20;;;;;;;1.84;49.18;100507.16;4354914;32;32732;-88
2022/03/09 01:00:49;;;;;;;18.45;9.70;;;;;;;2.00;48.54;100508.97;4361720;32;34008;-87
2022/03/09 01:03:17;;;;;;;16.58;7.93;;;;;;;1.81;49.12;100502.84;4361684;32;33536;-87
2022/03/09 01:05:45;;;;;;;13.57;6.90;;;;;;;1.99;48.48;100489.88;4361951;32;33425;-87
2022/03/09 01:08:14;;;;;;;16.25;7.75;;;;;;;1.99;48.14;100492.47;4343816;32;34147;-86
2022/03/09 01:10:42;;;;;;;17.87;7.82;;;;;;;2.27;47.57;100493.34;4354558;32;32760;-87
2022/03/09 01:13:09;;;;;;;14.25;7.68;;;;;;;2.05;48.46;100489.00;4361656;32;33542;-87
2022/03/09 01:15:37;;;;;;;16.37;8.02;;;;;;;1.93;48.85;100489.84;4361583;32;32390;-87
2022/03/09 01:18:05;;;;;;;15.25;7.18;;;;;;;2.02;48.66;100483.78;4361850;32;33065;-87
2022/03/09 01:20:32;;;;;;;15.80;7.00;;;;;;;2.04;48.55;100477.72;4360766;32;33892;-86
2022/03/09 01:23:00;;;;;;;18.25;7.43;;;;;;;2.12;48.61;100479.44;4361687;32;32732;-87
2022/03/09 01:25:28;;;;;;;15.90;7.20;;;;;;;2.05;48.46;100478.59;4343159;32;32312;-87
2022/03/09 01:27:56;;;;;;;15.40;7.68;;;;;;;2.07;48.46;100481.19;4373935;32;34632;-87
2022/03/09 01:30:23;;;;;;;18.90;8.48;;;;;;;2.06;48.49;100485.53;4356298;32;33364;-84
2022/03/09 01:32:51;;;;;;;14.55;6.20;;;;;;;1.86;48.64;100482.03;4373745;32;33509;-84
2022/03/09 01:35:20;;;;;;;12.00;6.87;;;;;;;1.85;48.59;100482.88;4373944;32;34108;-84
2022/03/09 01:37:50;;;;;;;16.15;7.18;;;;;;;1.81;48.73;100478.53;4353516;32;33152;-84
2022/03/09 01:40:18;;;;;;;13.73;7.07;;;;;;;1.66;49.48;100479.34;4365182;32;33666;-84
2022/03/09 01:42:46;;;;;;;12.37;6.60;;;;;;;2.11;48.23;100491.63;4342370;32;33875;-84
2022/03/09 01:45:14;;;;;;;14.13;7.20;;;;;;;2.16;47.92;100486.41;4373694;32;32673;-84
2022/03/09 01:47:42;;;;;;;14.02;7.43;;;;;;;2.34;47.38;100498.59;4372636;32;34376;-84
2022/03/09 01:50:10;;;;;;;19.92;8.20;;;;;;;2.10;48.35;100497.69;4368415;32;33113;-86
2022/03/09 01:52:40;;;;;;;15.88;7.32;;;;;;;1.93;48.95;100509.81;4355403;32;34458;-85
2022/03/09 01:55:09;;;;;;;12.90;6.78;;;;;;;2.11;48.50;100499.44;4360751;32;33797;-84
2022/03/09 01:57:36;;;;;;;18.67;8.15;;;;;;;2.10;48.23;100499.44;4367285;32;34227;-85
2022/03/09 02:00:05;;;;;;;13.15;6.95;;;;;;;2.26;47.88;100507.25;4343098;32;33705;-86
2022/03/09 02:02:33;;;;;;;18.02;7.57;;;;;;;1.99;48.90;100507.19;4369167;32;33770;-86
2022/03/09 02:05:01;;;;;;;15.23;7.80;;;;;;;2.07;48.56;100509.84;4365650;32;33228;-86
2022/03/09 02:10:20;;;;;;;11.82;7.28;;;;;;;2.22;48.29;100504.66;4371462;32;34427;-87
2022/03/09 02:12:48;;;;;;;16.45;8.13;;;;;;;2.20;48.10;100504.66;4373509;32;33863;-86
2022/03/09 02:15:16;;;;;;;16.52;7.12;;;;;;;2.53;47.26;100513.38;4373430;32;32236;-87
2022/03/09 02:17:44;;;;;;;20.92;7.53;;;;;;;2.19;48.47;100510.75;4373543;32;33810;-87
2022/03/09 02:20:14;;;;;;;18.50;7.55;;;;;;;2.01;49.24;100510.69;4371604;32;33976;-87
2022/03/09 02:22:43;;;;;;;10.45;6.50;;;;;;;2.13;48.95;100504.63;4372279;32;33532;-87
2022/03/09 02:25:13;;;;;;;13.32;6.65;;;;;;;1.98;49.49;100501.13;4367404;32;32325;-86
2022/03/09 02:27:42;;;;;;;17.48;8.05;;;;;;;2.07;49.00;100492.47;4360952;32;33362;-85
2022/03/09 02:30:13;;;;;;;16.17;8.02;;;;;;;2.25;48.84;100505.53;4360947;32;34927;-86
2022/03/09 02:32:47;;;;;;;16.23;7.97;;;;;;;2.47;47.92;100502.94;4373167;32;33669;-86
2022/03/09 02:35:17;;;;;;;13.13;6.97;;;;;;;2.42;47.63;100507.28;4368148;32;34176;-86
2022/03/09 02:37:45;;;;;;;14.65;7.22;;;;;;;2.42;47.69;100507.28;4360210;32;33637;-86
2022/03/09 02:40:15;;;;;;;13.20;6.70;;;;;;;2.36;47.68;100505.53;4340442;32;33209;-86
2022/03/09 02:42:43;;;;;;;15.30;7.40;;;;;;;2.45;47.67;100512.50;4368779;32;32833;-86
2022/03/09 02:45:11;;;;;;;13.77;7.45;;;;;;;2.17;48.27;100504.63;4363715;32;33272;-86
2022/03/09 02:47:40;;;;;;;17.05;8.20;;;;;;;2.26;48.47;100507.25;4372762;32;33705;-87
2022/03/09 02:50:12;;;;;;;19.25;8.52;;;;;;;2.51;47.84;100512.50;4360814;32;34003;-86
2022/03/09 02:52:40;;;;;;;18.02;7.10;;;;;;;2.73;47.18;100510.78;4365213;32;33909;-85
2022/03/09 02:55:09;;;;;;;18.02;7.12;;;;;;;2.93;46.45;100508.13;4360787;32;33263;-85
2022/03/09 02:57:37;;;;;;;13.10;7.03;;;;;;;2.67;46.95;100522.06;4373117;32;33534;-84
2022/03/09 03:00:07;;;;;;;18.50;7.55;;;;;;;2.42;48.04;100523.81;4373447;32;34181;-84
2022/03/09 03:02:36;;;;;;;13.27;6.65;;;;;;;2.38;48.19;100518.59;4360689;32;34136;-85
2022/03/09 03:05:06;;;;;;;15.57;7.35;;;;;;;2.31;48.57;100513.34;4365052;32;32394;-85
2022/03/09 03:07:34;;;;;;;14.40;7.15;;;;;;;2.48;48.26;100513.38;4373118;32;33767;-85
2022/03/09 03:10:06;;;;;;;14.02;7.43;;;;;;;2.33;48.32;100510.75;4352269;32;33517;-85
2022/03/09 03:12:34;;;;;;;15.02;7.43;;;;;;;2.41;48.31;100505.53;4365621;32;33927;-84
2022/03/09 03:15:02;;;;;;;14.82;6.82;;;;;;;2.46;48.35;100498.59;4373116;32;33009;-85
2022/03/09 03:17:37;;;;;;;;;;;;;;;2.25;49.13;100491.63;4360853;32;34903;-84
2022/03/09 03:20:05;;;;;;;16.58;6.97;;;;;;;2.28;49.07;100492.50;4372970;32;34728;-86
2022/03/09 03:22:33;;;;;;;16.35;6.43;;;;;;;2.35;49.07;100482.09;4340673;32;32707;-86
2022/03/09 03:25:02;;;;;;;16.37;7.68;;;;;;;2.29;49.30;100489.03;4371025;32;33268;-85
2022/03/09 03:27:29;;;;;;;11.73;6.62;;;;;;;2.53;48.82;100492.53;4365585;32;34699;-87
2022/03/09 03:29:58;;;;;;;11.50;6.62;;;;;;;2.35;48.54;100490.78;4366467;32;34016;-86
2022/03/09 03:32:25;;;;;;;17.37;8.13;;;;;;;2.43;48.44;100496.00;4352011;32;34015;-87
2022/03/09 03:34:53;;;;;;;18.23;7.80;;;;;;;2.49;48.43;100485.56;4360581;32;33838;-87
2022/03/09 03:37:21;;;;;;;11.20;6.65;;;;;;;2.40;48.93;100486.44;4372878;32;34541;-87
2022/03/09 03:39:48;;;;;;;13.00;6.93;;;;;;;2.40;48.88;100485.56;4354006;32;33611;-86
2022/03/09 03:42:16;;;;;;;15.38;7.05;;;;;;;2.55;48.60;100490.78;4342522;32;32813;-86
2022/03/09 03:44:45;;;;;;;17.08;7.70;;;;;;;2.87;47.52;100495.97;4372518;32;33955;-86
2022/03/09 03:47:13;;;;;;;16.20;6.97;;;;;;;2.48;48.61;100499.47;4355116;32;34336;-86
2022/03/09 03:49:40;;;;;;;16.42;7.95;;;;;;;2.47;49.12;100492.50;4352612;32;33894;-85
2022/03/09 03:52:08;;;;;;;14.13;7.22;;;;;;;2.19;49.85;100499.47;4352711;32;32401;-85
2022/03/09 03:54:36;;;;;;;20.77;7.75;;;;;;;2.07;50.51;100491.59;4361018;32;32954;-85
2022/03/09 03:57:03;;;;;;;13.55;7.05;;;;;;;2.36;49.63;100499.47;4341285;32;32347;-85
2022/03/09 03:59:31;;;;;;;10.65;6.03;;;;;;;2.42;49.51;100505.56;4373353;32;34759;-85
2022/03/09 04:01:59;;;;;;;15.43;8.05;;;;;;;2.50;49.26;100502.94;4359898;32;32032;-85
2022/03/09 04:04:28;;;;;;;18.08;7.72;;;;;;;2.41;49.35;100502.94;4360509;32;34222;-85
2022/03/09 04:06:56;;;;;;;16.17;8.50;;;;;;;2.40;48.83;100493.38;4366405;32;33764;-85
2022/03/09 04:09:24;;;;;;;14.07;7.45;;;;;;;2.57;48.67;100507.31;4348000;32;34047;-85
2022/03/09 04:11:52;;;;;;;16.15;7.62;;;;;;;2.30;49.62;100495.97;4360371;32;33415;-85
2022/03/09 04:14:22;;;;;;;21.48;8.63;;;;;;;2.42;49.54;100494.25;4359498;32;32869;-85
2022/03/09 04:16:50;;;;;;;18.62;8.88;;;;;;;2.47;49.60;100497.72;4352551;32;32907;-85
2022/03/09 04:19:18;;;;;;;20.80;8.82;;;;;;;2.47;49.52;100492.50;4352922;32;33175;-85
2022/03/09 04:21:45;;;;;;;20.92;8.10;;;;;;;2.75;48.36;100480.31;4368869;32;34475;-85
2022/03/09 04:24:13;;;;;;;22.45;10.35;;;;;;;2.56;48.91;100482.06;4357478;32;33410;-85
2022/03/09 04:26:41;;;;;;;15.30;8.10;;;;;;;2.67;48.86;100482.09;4343032;32;33026;-85
2022/03/09 04:29:08;;;;;;;18.27;9.07;;;;;;;2.54;49.12;100486.44;4349937;32;33029;-85
2022/03/09 04:31:36;;;;;;;15.23;8.20;;;;;;;2.52;48.82;100483.84;4362073;32;33120;-85
2022/03/09 04:34:07;;;;;;;19.30;8.25;;;;;;;2.61;49.03;100489.91;4361561;32;33820;-85
2022/03/09 04:36:36;;;;;;;16.87;7.87;;;;;;;2.66;48.62;100489.06;4356066;32;33711;-85
2022/03/09 04:39:05;;;;;;;16.42;8.55;;;;;;;2.52;49.31;100493.41;4348293;32;33546;-84
2022/03/09 04:41:33;;;;;;;22.35;9.43;;;;;;;2.82;48.63;100500.34;4362124;32;34272;-84
2022/03/09 04:44:01;;;;;;;15.38;7.03;;;;;;;2.91;48.16;100499.47;4373172;32;33811;-85
2022/03/09 04:46:30;;;;;;;21.65;8.88;;;;;;;2.95;47.92;100496.84;4342409;32;33327;-85
2022/03/09 04:49:00;;;;;;;17.27;9.23;;;;;;;2.82;48.09;100488.16;4372076;32;33575;-85
2022/03/09 04:51:28;;;;;;;23.20;9.30;;;;;;;2.34;49.86;100483.81;4373753;32;33501;-85
2022/03/09 04:53:55;;;;;;;17.75;9.55;;;;;;;2.71;49.11;100496.88;4373987;32;34272;-85
2022/03/09 04:56:23;;;;;;;12.63;7.30;;;;;;;2.62;49.50;100502.94;4373828;32;32770;-85
2022/03/09 04:58:51;;;;;;;17.10;7.18;;;;;;;2.58;49.19;100505.56;4349202;32;33116;-84
2022/03/09 05:01:18;;;;;;;15.32;7.93;;;;;;;2.79;48.66;100511.63;4364710;32;32704;-85
2022/03/09 05:03:47;;;;;;;15.32;7.25;;;;;;;2.92;48.07;100506.41;4355460;32;33024;-85
2022/03/09 05:06:16;;;;;;;15.60;8.38;;;;;;;2.90;47.90;100497.72;4367414;32;33085;-85
2022/03/09 05:08:44;;;;;;;17.48;8.35;;;;;;;2.88;48.04;100489.88;4373387;32;34022;-85
2022/03/09 05:11:12;;;;;;;14.90;7.20;;;;;;;2.72;48.89;100483.81;4361383;32;32836;-85
2022/03/09 05:13:39;;;;;;;17.55;9.15;;;;;;;2.79;48.86;100472.50;4373476;32;33577;-86
2022/03/09 05:16:07;;;;;;;18.33;7.68;;;;;;;2.85;48.25;100473.34;4350652;32;33208;-86
2022/03/09 05:18:40;;;;;;;20.58;7.75;;;;;;;2.77;48.36;100476.00;4362983;32;32775;-86
2022/03/09 05:21:09;;;;;;;13.95;7.30;;;;;;;2.90;47.93;100482.06;4351103;32;32846;-85
2022/03/09 05:23:37;;;;;;;27.05;9.77;;;;;;;2.73;48.56;100487.28;4373820;32;33279;-84
2022/03/09 05:26:05;;;;;;;17.42;7.72;;;;;;;2.75;48.80;100494.25;4353925;32;33413;-86
2022/03/09 05:28:34;;;;;;;19.73;9.30;;;;;;;2.89;48.72;100486.41;4366524;32;34797;-86
2022/03/09 05:31:02;;;;;;;21.37;10.07;;;;;;;2.61;49.46;100495.13;4358239;32;32465;-87
2022/03/09 05:33:30;;;;;;;18.95;9.40;;;;;;;2.90;48.79;100487.28;4355001;32;33509;-86
2022/03/09 05:35:58;;;;;;;19.95;9.02;;;;;;;2.87;48.74;100492.50;4361230;32;33241;-87
2022/03/09 05:38:26;;;;;;;17.65;9.02;;;;;;;2.77;49.21;100502.06;4360812;32;32451;-86
2022/03/09 05:40:54;;;;;;;22.08;10.43;;;;;;;2.95;48.94;100501.19;4373431;32;33659;-87
2022/03/09 05:43:21;;;;;;;18.35;9.93;;;;;;;3.01;49.01;100498.56;4360127;32;32446;-87
2022/03/09 05:45:50;;;;;;;18.17;9.85;;;;;;;3.00;48.91;100489.00;4359443;32;34008;-86
2022/03/09 05:48:19;;;;;;;17.02;8.45;;;;;;;2.99;49.00;100488.16;4360647;32;34429;-86
2022/03/09 05:50:46;;;;;;;18.30;9.05;;;;;;;2.96;49.23;100490.75;4359264;32;33816;-85
2022/03/09 05:53:15;;;;;;;22.02;9.50;;;;;;;3.32;48.52;100500.25;4371228;32;33497;-85
2022/03/09 05:55:46;;;;;;;20.10;9.00;;;;;;;3.34;48.80;100511.53;4350494;32;32913;-85
2022/03/09 05:58:13;;;;;;;20.77;9.60;;;;;;;3.36;48.70;100523.69;4361491;32;33896;-85
2022/03/09 06:00:41;;;;;;;23.00;10.73;;;;;;;3.07;49.97;100527.25;4372118;32;33794;-87
2022/03/09 06:03:10;;;;;;;20.30;9.98;;;;;;;3.08;50.32;100536.81;4360910;32;33382;-88
2022/03/09 06:05:37;;;;;;;18.85;9.30;;;;;;;3.24;50.00;100541.13;4360289;32;33200;-89
2022/03/09 06:08:05;;;;;;;18.62;9.55;;;;;;;3.28;49.62;100548.09;4354243;32;33525;-86
2022/03/09 06:10:33;;;;;;;19.83;9.20;;;;;;;3.19;49.64;100561.16;4360566;32;33658;-87
2022/03/09 06:13:01;;;;;;;16.75;8.68;;;;;;;3.63;47.99;100547.12;4353373;32;32885;-86
2022/03/09 06:15:29;;;;;;;23.08;10.00;;;;;;;3.37;49.16;100557.66;4372892;32;33586;-86
2022/03/09 06:17:57;;;;;;;19.50;9.68;;;;;;;3.57;48.85;100554.97;4372869;32;33933;-86
2022/03/09 06:20:25;;;;;;;17.67;9.13;;;;;;;3.48;49.54;100549.78;4353581;32;34218;-86
2022/03/09 06:22:54;;;;;;;17.95;8.63;;;;;;;3.60;48.74;100557.56;4358421;32;32567;-86
2022/03/09 06:25:22;;;;;;;14.93;7.30;;;;;;;3.67;47.07;100548.84;4347418;32;34076;-86
2022/03/09 06:27:52;;;;;;;18.25;9.15;;;;;;;3.90;45.70;100546.16;4370600;32;33646;-86
2022/03/09 06:30:25;;;;;;;13.60;7.90;;;;;;;3.74;46.83;100558.38;4359630;32;34282;-86
2022/03/09 06:32:55;;;;;;;20.10;7.97;;;;;;;4.00;44.67;100545.22;4371490;32;33378;-86
2022/03/09 06:35:23;;;;;;;13.65;8.13;;;;;;;4.00;44.71;100549.59;4346822;32;33302;-86
2022/03/09 06:37:51;;;;;;;17.75;8.60;;;;;;;3.90;45.16;100545.28;4360815;32;32901;-85
2022/03/09 06:40:19;;;;;;;15.60;7.62;;;;;;;4.05;44.49;100553.03;4360288;32;33888;-86
2022/03/09 06:42:49;;;;;;;15.73;8.50;;;;;;;4.07;44.81;100544.31;4359824;32;33201;-86
2022/03/09 06:45:22;;;;;;;17.05;8.30;;;;;;;4.45;43.46;100542.34;4348109;32;32347;-85
2022/03/09 06:47:50;;;;;;;18.00;7.85;;;;;;;4.57;43.26;100547.50;4353478;32;33868;-86
2022/03/09 06:50:17;;;;;;;18.37;8.65;;;;;;;4.24;44.73;100548.59;4341638;32;33268;-86
2022/03/09 06:52:45;;;;;;;22.35;9.15;;;;;;;4.18;43.49;100548.59;4353848;32;33597;-86
2022/03/09 06:55:15;;;;;;;14.87;8.15;;;;;;;4.42;43.61;100545.84;4348461;32;33274;-86
2022/03/09 06:57:43;;;;;;;16.05;7.93;;;;;;;4.61;43.47;100549.22;4360080;32;33362;-86
2022/03/09 07:00:12;;;;;;;20.40;9.48;;;;;;;4.63;43.69;100552.66;4361007;32;32567;-86
2022/03/09 07:02:41;;;;;;;14.55;8.02;;;;;;;4.76;43.51;100559.56;4354750;32;33787;-86
2022/03/09 07:05:09;;;;;;;20.20;9.57;;;;;;;4.72;43.59;100560.44;4355566;32;34373;-86
2022/03/09 07:07:39;;;;;;;16.27;8.40;;;;;;;4.78;43.35;100560.38;4360589;32;33871;-86
2022/03/09 07:10:12;;;;;;;17.55;9.18;;;;;;;4.61;43.01;100554.44;4372688;32;33272;-86
2022/03/09 07:12:44;;;;;;;14.80;8.32;;;;;;;4.84;42.92;100559.47;4354299;32;33881;-86
2022/03/09 07:15:13;;;;;;;16.37;8.32;;;;;;;5.03;42.92;100560.19;4364232;32;34715;-86
2022/03/09 07:17:42;;;;;;;16.75;8.80;;;;;;;4.81;43.26;100557.75;4360896;32;32782;-86
2022/03/09 07:20:11;;;;;;;24.65;9.40;;;;;;;4.82;43.12;100564.72;4348396;32;32927;-86
2022/03/09 07:22:40;;;;;;;16.75;9.50;;;;;;;5.33;41.72;100575.63;4373011;32;33468;-86
2022/03/09 07:25:09;;;;;;;17.45;9.70;;;;;;;5.19;41.79;100574.88;4355674;32;32987;-86
2022/03/09 07:27:38;;;;;;;17.55;8.77;;;;;;;4.85;43.61;100585.66;4360447;32;33303;-86
2022/03/09 07:30:08;;;;;;;19.73;10.02;;;;;;;4.78;43.91;100593.53;4359509;32;33189;-86
2022/03/09 07:32:36;;;;;;;18.67;11.20;;;;;;;5.36;42.09;100590.41;4348048;32;32748;-86
2022/03/09 07:35:20;;;;;;;20.30;9.93;;;;;;;5.24;42.24;100596.66;4365343;32;33936;-86
2022/03/09 07:37:50;;;;;;;21.75;10.73;;;;;;;5.39;42.36;100586.03;4372716;32;33871;-86
2022/03/09 07:40:18;;;;;;;21.10;11.05;;;;;;;5.03;43.79;100582.00;4366714;32;33847;-86
2022/03/09 07:42:46;;;;;;;19.45;10.32;;;;;;;5.51;42.18;100571.09;4372612;32;33181;-86
2022/03/09 07:45:14;;;;;;;16.50;10.32;;;;;;;5.20;42.61;100550.44;4353938;32;34604;-86
2022/03/09 07:47:42;;;;;;;20.88;10.23;;;;;;;5.39;42.90;100538.87;4366691;32;33816;-86
2022/03/09 07:50:10;;;;;;;19.65;9.73;;;;;;;5.33;42.55;100533.72;4344309;32;33731;-86
2022/03/09 07:52:37;;;;;;;18.90;10.35;;;;;;;5.82;41.38;100530.53;4359354;32;33383;-86
2022/03/09 07:55:06;;;;;;;20.52;10.43;;;;;;;5.79;41.30;100543.69;4370465;32;33447;-86
2022/03/09 07:57:40;;;;;;;18.02;10.07;;;;;;;5.62;41.78;100549.09;4356033;32;33034;-86
2022/03/09 08:00:08;;;;;;;;;;;;;;;5.56;42.06;100553.56;4374329;32;33775;-86
2022/03/09 08:02:40;;;;;;;18.23;10.73;;;;;;;5.43;42.62;100549.34;4361667;32;32938;-86
2022/03/09 08:05:11;;;;;;;20.27;10.68;;;;;;;5.57;42.74;100548.28;4362114;32;33577;-86
2022/03/09 08:07:43;;;;;;;20.27;11.05;;;;;;;5.76;41.85;100543.72;4373351;32;34547;-86
2022/03/09 08:10:16;;;;;;;22.02;10.00;;;;;;;5.86;42.63;100547.94;4357399;32;32701;-86
2022/03/09 08:12:44;;;;;;;22.77;10.60;;;;;;;6.19;41.76;100540.56;4349512;32;32914;-86
2022/03/09 08:15:12;;;;;;;20.45;11.68;;;;;;;6.05;42.00;100547.75;4361441;32;33816;-88
2022/03/09 08:17:40;;;;;;;20.80;10.23;;;;;;;6.24;41.27;100546.59;4356980;32;33212;-89
2022/03/09 08:20:12;;;;;;;24.48;11.02;;;;;;;5.86;42.80;100547.09;4354649;32;33731;-88
2022/03/09 08:22:41;;;;;;;78.25;27.30;;;;;;;5.97;42.31;100539.09;4372899;32;33090;-89
2022/03/09 08:25:11;;;;;;;166.90;51.50;;;;;;;6.31;41.50;100535.13;4374155;32;33995;-89
2022/03/09 08:27:40;;;;;;;86.65;36.30;;;;;;;6.12;41.96;100533.66;4361816;32;33435;-89
2022/03/09 08:30:08;;;;;;;27.45;16.10;;;;;;;5.83;43.37;100536.63;4361277;32;33529;-89
2022/03/09 08:32:35;;;;;;;30.27;15.60;;;;;;;6.15;42.00;100525.75;4355256;32;33570;-88
2022/03/09 08:35:05;;;;;;;26.70;12.82;;;;;;;6.00;42.16;100518.09;4348688;32;32994;-89
2022/03/09 08:37:33;;;;;;;25.10;12.07;;;;;;;6.55;41.40;100527.78;4367940;32;34033;-90
2022/03/09 08:40:01;;;;;;;20.42;11.98;;;;;;;6.68;41.77;100526.69;4362345;32;34467;-89
2022/03/09 08:42:29;;;;;;;22.27;11.65;;;;;;;6.73;41.14;100524.84;4349998;32;33363;-90
2022/03/09 08:44:57;;;;;;;24.12;10.68;;;;;;;6.79;40.73;100516.91;4356685;32;32900;-89
2022/03/09 08:47:25;;;;;;;26.60;11.50;;;;;;;6.88;40.65;100516.75;4356872;32;33358;-91
2022/03/09 08:49:53;;;;;;;22.25;12.18;;;;;;;6.74;41.30;100518.75;4344324;32;32460;-90
2022/03/09 08:52:41;;;;;;;17.85;10.25;;;;;;;6.93;41.00;100516.62;4354332;32;33534;-90
2022/03/09 08:55:09;;;;;;;19.75;11.30;;;;;;;7.17;40.12;100510.12;4356164;32;33008;-90
2022/03/09 08:57:36;;;;;;;20.10;10.55;;;;;;;6.87;41.51;100504.50;4349122;32;32985;-90
2022/03/09 09:00:06;;;;;;;20.30;10.45;;;;;;;7.25;40.39;100507.31;4361790;32;32796;-90
2022/03/09 09:02:34;;;;;;;20.70;10.20;;;;;;;7.50;40.48;100505.09;4357636;32;32265;-90
2022/03/09 09:05:02;;;;;;;18.90;11.32;;;;;;;7.75;40.23;100493.19;4361644;32;32780;-90
2022/03/09 09:07:30;;;;;;;20.92;11.90;;;;;;;7.98;38.91;100490.06;4360848;32;33654;-90
2022/03/09 09:09:58;;;;;;;18.80;10.52;;;;;;;7.72;39.22;100495.88;4361442;32;33950;-90
2022/03/09 09:12:26;;;;;;;14.50;9.35;;;;;;;7.73;39.19;100486.22;4374289;32;32481;-90
2022/03/09 09:14:53;;;;;;;18.08;10.68;;;;;;;8.07;38.78;100487.25;4361737;32;34501;-89
2022/03/09 09:17:21;;;;;;;21.17;12.02;;;;;;;7.98;39.14;100482.19;4354702;32;32933;-90
2022/03/09 09:20:04;;;;;;;21.70;11.20;;;;;;;7.94;38.96;100486.62;4361195;32;32891;-90
2022/03/09 09:22:32;;;;;;;23.87;11.27;;;;;;;8.03;39.42;100479.44;4373917;32;33634;-90
2022/03/09 09:25:21;;;;;;;19.15;11.55;;;;;;;8.22;38.29;100475.50;4371990;32;33491;-90
2022/03/09 09:27:50;;;;;;;18.08;10.48;;;;;;;8.45;38.50;100477.59;4360821;32;32619;-90
2022/03/09 09:30:19;;;;;;;17.02;10.18;;;;;;;8.53;37.79;100477.41;4349346;32;33294;-90
2022/03/09 09:32:47;;;;;;;18.65;10.02;;;;;;;8.43;39.33;100484.66;4361471;32;32785;-91
2022/03/09 09:35:17;;;;;;;17.80;10.10;;;;;;;9.00;37.74;100464.81;4367132;32;33611;-91
2022/03/09 09:37:47;;;;;;;18.95;10.35;;;;;;;8.97;37.07;100469.28;4361430;32;34402;-88
2022/03/09 09:40:15;;;;;;;16.87;9.75;;;;;;;8.73;37.84;100472.50;4356648;32;32816;-88
2022/03/09 09:42:44;;;;;;;19.08;11.27;;;;;;;8.45;38.33;100481.13;4352863;32;32322;-89
2022/03/09 09:45:21;;;;;;;18.08;10.25;;;;;;;8.42;39.65;100478.53;4365161;32;34625;-88
2022/03/09 09:47:51;;;;;;;16.50;9.50;;;;;;;8.67;38.63;100467.41;4353250;32;33790;-88
2022/03/09 09:50:20;;;;;;;22.08;10.02;;;;;;;8.98;37.65;100468.34;4372395;32;33905;-88
2022/03/09 09:52:48;;;;;;;19.50;9.77;;;;;;;8.86;37.78;100473.94;4360774;32;33333;-88
2022/03/09 09:55:15;;;;;;;16.75;9.80;;;;;;;8.78;37.99;100472.41;4360259;32;33950;-88
2022/03/09 09:57:46;;;;;;;17.98;10.15;;;;;;;8.82;38.18;100460.87;4360859;32;33699;-88
2022/03/09 10:00:14;;;;;;;16.37;9.33;;;;;;;8.75;38.26;100465.47;4348694;32;32014;-88
2022/03/09 10:02:43;;;;;;;16.37;9.57;;;;;;;8.77;37.99;100463.63;4348057;32;32385;-88
2022/03/09 10:05:14;;;;;;;19.17;11.70;;;;;;;9.06;37.63;100462.88;4372855;32;32367;-88
2022/03/09 10:08:03;;;;;;;19.10;12.57;;;;;;;9.13;37.54;100471.50;4360818;32;34075;-88
2022/03/09 10:10:33;;;;;;;15.98;7.68;;;;;;;9.56;37.27;100459.75;4371779;32;33659;-88
2022/03/09 10:13:12;;;;;;;15.00;8.90;;;;;;;9.72;35.87;100456.59;4364321;32;33403;-88
2022/03/09 10:15:43;;;;;;;14.73;7.53;;;;;;;9.80;35.95;100455.50;4373054;32;33893;-87
2022/03/09 10:18:11;;;;;;;13.07;8.18;;;;;;;9.92;36.08;100448.09;4347148;32;33096;-87
2022/03/09 10:20:39;;;;;;;14.10;7.65;;;;;;;9.90;35.74;100454.31;4367713;32;33823;-88
2022/03/09 10:23:08;;;;;;;13.68;8.38;;;;;;;9.96;35.67;100444.44;4368235;32;33272;-88
2022/03/09 10:25:38;;;;;;;9.57;6.93;;;;;;;10.17;35.91;100447.34;4373123;32;34269;-88
2022/03/09 10:28:11;;;;;;;15.63;8.45;;;;;;;10.57;35.12;100446.91;4372165;32;35317;-88
2022/03/09 10:30:41;;;;;;;13.02;7.62;;;;;;;10.64;34.89;100447.59;4372216;32;33785;-88
2022/03/09 10:33:11;;;;;;;15.70;8.18;;;;;;;10.53;35.77;100434.72;4360824;32;33366;-88
2022/03/09 10:35:40;;;;;;;19.85;9.18;;;;;;;10.89;34.41;100432.63;4372727;32;32666;-88
2022/03/09 10:38:29;;;;;;;16.80;8.40;;;;;;;10.64;35.21;100429.97;4360665;32;33722;-88
2022/03/09 10:41:00;;;;;;;15.63;8.40;;;;;;;11.21;34.61;100412.97;4359976;32;33260;-88
2022/03/09 10:43:30;;;;;;;13.17;8.60;;;;;;;11.64;34.24;100403.44;4372770;32;33016;-88
2022/03/09 10:46:06;;;;;;;15.85;9.05;;;;;;;11.51;34.84;100394.25;4372737;32;32318;-88
2022/03/09 10:48:46;;;;;;;14.93;10.32;;;;;;;11.99;33.10;100394.13;4360107;32;33274;-88
2022/03/09 10:51:27;;;;;;;15.13;8.07;;;;;;;11.98;33.26;100389.78;4361074;32;33816;-87
2022/03/09 10:53:56;;;;;;;15.18;9.15;;;;;;;12.22;33.05;100382.63;4356349;32;30730;-88
2022/03/09 10:56:24;;;;;;;15.38;8.65;;;;;;;12.15;33.34;100377.62;4347559;32;34652;-87
2022/03/09 10:58:52;;;;;;;14.07;9.43;;;;;;;12.34;33.02;100381.25;4348075;32;33458;-87
2022/03/09 11:01:20;;;;;;;13.07;8.82;;;;;;;12.11;33.38;100378.72;4372454;32;34646;-88
2022/03/09 11:03:49;;;;;;;13.27;8.23;;;;;;;11.91;34.09;100388.28;4372103;32;34035;-88
2022/03/09 11:06:18;;;;;;;16.52;9.57;;;;;;;12.30;34.72;100379.66;4364929;32;34602;-88
2022/03/09 11:08:46;;;;;;;21.58;14.50;;;;;;;12.48;33.51;100384.16;4360068;32;32973;-87
2022/03/09 11:11:14;;;;;;;17.48;9.85;;;;;;;12.64;32.49;100378.25;4359365;32;32813;-87
2022/03/09 11:13:42;;;;;;;17.40;10.32;;;;;;;13.13;31.77;100370.78;4372716;32;32113;-87
2022/03/09 11:16:10;;;;;;;15.38;10.75;;;;;;;12.93;31.77;100369.03;4372526;32;34734;-87
2022/03/09 11:18:39;;;;;;;14.68;9.45;;;;;;;12.55;33.65;100369.75;4372193;32;33318;-87
2022/03/09 11:21:08;;;;;;;14.93;9.10;;;;;;;13.05;32.29;100371.09;4360101;32;33271;-86
2022/03/09 11:23:40;;;;;;;15.63;9.90;;;;;;;12.83;33.48;100373.88;4353932;32;32733;-88
2022/03/09 11:26:14;;;;;;;18.50;10.40;;;;;;;13.05;31.96;100377.31;4365520;32;33336;-87
2022/03/09 11:28:44;;;;;;;16.60;10.07;;;;;;;12.97;32.23;100366.16;4354758;32;32488;-87
2022/03/09 11:31:21;;;;;;;13.20;9.43;;;;;;;12.63;32.67;100360.59;4365885;32;34329;-87
2022/03/09 11:33:51;;;;;;;19.50;9.32;;;;;;;12.42;32.91;100365.91;4360109;32;33074;-87